sensor_id;sensor_type;location;lat;lon;timestamp;P1;durP1;ratioP1;P2;durP2;ratioP2
19800;SDS011;10060;48.274;12.214;2023-03-01T00:00:31;29.37;;;14.17;;
19800;SDS011;10060;48.274;12.214;2023-03-01T00:03:33;26.27;;;15.07;;
19800;SDS011;10060;48.274;12.214;2023-03-01T00:06:37;27.63;;;14.70;;
19800;SDS011;10060;48.274;12.214;2023-03-01T00:09:39;27.73;;;15.57;;
19800;SDS011;10060;48.274;12.214;2023-03-01T00:12:43;25.03;;;14.83;;
19800;SDS011;10060;48.274;12.214;2023-03-01T00:15:45;26.90;;;14.63;;
19800;SDS011;10060;48.274;12.214;2023-03-01T00:18:47;27.97;;;15.00;;
19800;SDS011;10060;48.274;12.214;2023-03-01T00:21:51;25.03;;;14.30;;
19800;SDS011;10060;48.274;12.214;2023-03-01T00:24:54;25.50;;;15.10;;
19800;SDS011;10060;48.274;12.214;2023-03-01T00:27:56;28.93;;;15.10;;
19800;SDS011;10060;48.274;12.214;2023-03-01T00:31:01;24.37;;;14.73;;
19800;SDS011;10060;48.274;12.214;2023-03-01T00:34:04;32.20;;;15.23;;
19800;SDS011;10060;48.274;12.214;2023-03-01T00:37:08;30.60;;;15.80;;
19800;SDS011;10060;48.274;12.214;2023-03-01T00:40:11;25.77;;;14.70;;
19800;SDS011;10060;48.274;12.214;2023-03-01T00:43:14;24.47;;;14.60;;
19800;SDS011;10060;48.274;12.214;2023-03-01T00:46:16;24.73;;;14.90;;
19800;SDS011;10060;48.274;12.214;2023-03-01T00:49:19;22.43;;;13.33;;
19800;SDS011;10060;48.274;12.214;2023-03-01T00:52:22;28.83;;;14.63;;
19800;SDS011;10060;48.274;12.214;2023-03-01T00:55:25;26.27;;;14.83;;
19800;SDS011;10060;48.274;12.214;2023-03-01T00:58:27;23.47;;;13.57;;
19800;SDS011;10060;48.274;12.214;2023-03-01T01:01:30;28.17;;;15.77;;
19800;SDS011;10060;48.274;12.214;2023-03-01T01:04:32;29.67;;;15.97;;
19800;SDS011;10060;48.274;12.214;2023-03-01T01:07:35;25.50;;;13.73;;
19800;SDS011;10060;48.274;12.214;2023-03-01T01:10:37;27.23;;;15.23;;
19800;SDS011;10060;48.274;12.214;2023-03-01T01:13:40;29.20;;;15.40;;
19800;SDS011;10060;48.274;12.214;2023-03-01T01:16:42;22.97;;;14.30;;
19800;SDS011;10060;48.274;12.214;2023-03-01T01:19:47;26.47;;;15.47;;
19800;SDS011;10060;48.274;12.214;2023-03-01T01:22:50;27.03;;;15.03;;
19800;SDS011;10060;48.274;12.214;2023-03-01T01:25:56;25.77;;;15.00;;
19800;SDS011;10060;48.274;12.214;2023-03-01T01:29:05;25.73;;;15.23;;
19800;SDS011;10060;48.274;12.214;2023-03-01T01:32:13;25.00;;;14.13;;
19800;SDS011;10060;48.274;12.214;2023-03-01T01:35:19;30.33;;;15.30;;
19800;SDS011;10060;48.274;12.214;2023-03-01T01:38:32;27.10;;;14.90;;
19800;SDS011;10060;48.274;12.214;2023-03-01T01:41:45;25.17;;;14.57;;
19800;SDS011;10060;48.274;12.214;2023-03-01T01:48:27;30.47;;;15.30;;
19800;SDS011;10060;48.274;12.214;2023-03-01T01:51:41;23.63;;;14.33;;
19800;SDS011;10060;48.274;12.214;2023-03-01T01:54:49;25.87;;;15.10;;
19800;SDS011;10060;48.274;12.214;2023-03-01T01:57:52;25.83;;;15.13;;
19800;SDS011;10060;48.274;12.214;2023-03-01T02:00:55;29.07;;;15.97;;
19800;SDS011;10060;48.274;12.214;2023-03-01T02:03:57;28.77;;;15.33;;
19800;SDS011;10060;48.274;12.214;2023-03-01T02:07:01;27.33;;;15.67;;
19800;SDS011;10060;48.274;12.214;2023-03-01T02:10:06;27.80;;;15.63;;
19800;SDS011;10060;48.274;12.214;2023-03-01T02:13:08;27.83;;;15.97;;
19800;SDS011;10060;48.274;12.214;2023-03-01T02:16:12;28.77;;;15.67;;
19800;SDS011;10060;48.274;12.214;2023-03-01T02:19:19;28.53;;;16.03;;
19800;SDS011;10060;48.274;12.214;2023-03-01T02:22:24;29.03;;;15.97;;
19800;SDS011;10060;48.274;12.214;2023-03-01T02:25:28;29.20;;;15.30;;
19800;SDS011;10060;48.274;12.214;2023-03-01T02:28:33;28.77;;;15.00;;
19800;SDS011;10060;48.274;12.214;2023-03-01T02:31:36;26.83;;;15.30;;
19800;SDS011;10060;48.274;12.214;2023-03-01T02:34:44;30.33;;;15.40;;
19800;SDS011;10060;48.274;12.214;2023-03-01T02:37:47;28.27;;;14.60;;
19800;SDS011;10060;48.274;12.214;2023-03-01T02:40:49;27.10;;;15.27;;
19800;SDS011;10060;48.274;12.214;2023-03-01T02:43:53;25.67;;;15.17;;
19800;SDS011;10060;48.274;12.214;2023-03-01T02:46:56;26.83;;;15.20;;
19800;SDS011;10060;48.274;12.214;2023-03-01T02:49:58;25.97;;;15.23;;
19800;SDS011;10060;48.274;12.214;2023-03-01T02:53:01;29.57;;;15.50;;
19800;SDS011;10060;48.274;12.214;2023-03-01T02:56:03;25.17;;;15.60;;
19800;SDS011;10060;48.274;12.214;2023-03-01T02:59:10;31.00;;;16.43;;
19800;SDS011;10060;48.274;12.214;2023-03-01T03:02:19;26.37;;;14.87;;
19800;SDS011;10060;48.274;12.214;2023-03-01T03:05:35;29.40;;;15.93;;
19800;SDS011;10060;48.274;12.214;2023-03-01T03:08:37;24.20;;;14.67;;
19800;SDS011;10060;48.274;12.214;2023-03-01T03:11:40;26.57;;;14.87;;
19800;SDS011;10060;48.274;12.214;2023-03-01T03:14:44;29.43;;;16.30;;
19800;SDS011;10060;48.274;12.214;2023-03-01T03:17:46;26.77;;;15.07;;
19800;SDS011;10060;48.274;12.214;2023-03-01T03:20:48;28.07;;;15.53;;
19800;SDS011;10060;48.274;12.214;2023-03-01T03:23:52;28.47;;;15.30;;
19800;SDS011;10060;48.274;12.214;2023-03-01T03:26:55;30.57;;;15.33;;
19800;SDS011;10060;48.274;12.214;2023-03-01T03:29:58;26.17;;;14.30;;
19800;SDS011;10060;48.274;12.214;2023-03-01T03:33:00;29.00;;;15.20;;
19800;SDS011;10060;48.274;12.214;2023-03-01T03:36:03;25.53;;;14.07;;
19800;SDS011;10060;48.274;12.214;2023-03-01T03:39:06;26.63;;;15.70;;
19800;SDS011;10060;48.274;12.214;2023-03-01T03:42:08;27.73;;;15.03;;
19800;SDS011;10060;48.274;12.214;2023-03-01T03:45:11;27.47;;;15.33;;
19800;SDS011;10060;48.274;12.214;2023-03-01T03:48:14;29.37;;;15.60;;
19800;SDS011;10060;48.274;12.214;2023-03-01T03:51:16;30.33;;;15.47;;
19800;SDS011;10060;48.274;12.214;2023-03-01T03:54:19;29.67;;;15.30;;
19800;SDS011;10060;48.274;12.214;2023-03-01T03:57:21;26.77;;;15.53;;
19800;SDS011;10060;48.274;12.214;2023-03-01T04:00:24;27.97;;;15.80;;
19800;SDS011;10060;48.274;12.214;2023-03-01T04:03:27;28.33;;;15.83;;
19800;SDS011;10060;48.274;12.214;2023-03-01T04:06:30;26.53;;;14.77;;
19800;SDS011;10060;48.274;12.214;2023-03-01T04:09:32;26.50;;;15.33;;
19800;SDS011;10060;48.274;12.214;2023-03-01T04:12:34;27.77;;;14.67;;
19800;SDS011;10060;48.274;12.214;2023-03-01T04:15:38;26.23;;;14.53;;
19800;SDS011;10060;48.274;12.214;2023-03-01T04:18:40;24.97;;;15.00;;
19800;SDS011;10060;48.274;12.214;2023-03-01T04:21:42;29.20;;;15.10;;
19800;SDS011;10060;48.274;12.214;2023-03-01T04:24:45;26.13;;;15.37;;
19800;SDS011;10060;48.274;12.214;2023-03-01T04:27:47;25.10;;;14.60;;
19800;SDS011;10060;48.274;12.214;2023-03-01T04:30:50;25.53;;;15.00;;
19800;SDS011;10060;48.274;12.214;2023-03-01T04:33:54;28.23;;;15.43;;
19800;SDS011;10060;48.274;12.214;2023-03-01T04:36:56;26.47;;;14.47;;
19800;SDS011;10060;48.274;12.214;2023-03-01T04:39:59;30.90;;;15.90;;
19800;SDS011;10060;48.274;12.214;2023-03-01T04:43:01;28.87;;;14.97;;
19800;SDS011;10060;48.274;12.214;2023-03-01T04:46:05;27.93;;;16.23;;
19800;SDS011;10060;48.274;12.214;2023-03-01T04:49:09;26.83;;;14.73;;
19800;SDS011;10060;48.274;12.214;2023-03-01T04:52:11;28.50;;;14.90;;
19800;SDS011;10060;48.274;12.214;2023-03-01T04:55:13;26.03;;;15.13;;
19800;SDS011;10060;48.274;12.214;2023-03-01T04:58:15;25.60;;;15.27;;
19800;SDS011;10060;48.274;12.214;2023-03-01T05:01:19;28.97;;;15.83;;
19800;SDS011;10060;48.274;12.214;2023-03-01T05:04:21;27.00;;;15.03;;
19800;SDS011;10060;48.274;12.214;2023-03-01T05:07:23;25.93;;;15.13;;
19800;SDS011;10060;48.274;12.214;2023-03-01T05:10:26;30.27;;;15.40;;
19800;SDS011;10060;48.274;12.214;2023-03-01T05:13:30;24.70;;;15.00;;
19800;SDS011;10060;48.274;12.214;2023-03-01T05:16:34;28.83;;;15.63;;
19800;SDS011;10060;48.274;12.214;2023-03-01T05:19:36;29.63;;;15.90;;
19800;SDS011;10060;48.274;12.214;2023-03-01T05:22:39;26.30;;;15.13;;
19800;SDS011;10060;48.274;12.214;2023-03-01T05:25:41;30.00;;;16.17;;
19800;SDS011;10060;48.274;12.214;2023-03-01T05:28:43;24.57;;;14.57;;
19800;SDS011;10060;48.274;12.214;2023-03-01T05:31:46;28.60;;;15.23;;
19800;SDS011;10060;48.274;12.214;2023-03-01T05:34:48;28.93;;;16.50;;
19800;SDS011;10060;48.274;12.214;2023-03-01T05:37:52;27.17;;;14.97;;
19800;SDS011;10060;48.274;12.214;2023-03-01T05:40:54;28.70;;;16.17;;
19800;SDS011;10060;48.274;12.214;2023-03-01T05:43:56;31.83;;;16.20;;
19800;SDS011;10060;48.274;12.214;2023-03-01T05:46:59;33.80;;;16.63;;
19800;SDS011;10060;48.274;12.214;2023-03-01T05:50:02;30.23;;;16.67;;
19800;SDS011;10060;48.274;12.214;2023-03-01T05:53:04;29.13;;;16.17;;
19800;SDS011;10060;48.274;12.214;2023-03-01T05:56:07;30.77;;;16.63;;
19800;SDS011;10060;48.274;12.214;2023-03-01T05:59:11;31.73;;;15.70;;
19800;SDS011;10060;48.274;12.214;2023-03-01T06:02:15;30.83;;;15.73;;
19800;SDS011;10060;48.274;12.214;2023-03-01T06:05:17;29.07;;;16.47;;
19800;SDS011;10060;48.274;12.214;2023-03-01T06:08:19;30.23;;;16.73;;
19800;SDS011;10060;48.274;12.214;2023-03-01T06:11:22;27.87;;;15.67;;
19800;SDS011;10060;48.274;12.214;2023-03-01T06:14:24;30.10;;;16.03;;
19800;SDS011;10060;48.274;12.214;2023-03-01T06:17:28;35.80;;;17.30;;
19800;SDS011;10060;48.274;12.214;2023-03-01T06:20:30;30.23;;;16.50;;
19800;SDS011;10060;48.274;12.214;2023-03-01T06:23:33;29.47;;;16.70;;
19800;SDS011;10060;48.274;12.214;2023-03-01T06:26:35;32.40;;;16.70;;
19800;SDS011;10060;48.274;12.214;2023-03-01T06:29:37;36.70;;;18.17;;
19800;SDS011;10060;48.274;12.214;2023-03-01T06:32:40;32.50;;;16.67;;
19800;SDS011;10060;48.274;12.214;2023-03-01T06:35:43;30.43;;;15.87;;
19800;SDS011;10060;48.274;12.214;2023-03-01T06:38:45;28.67;;;16.07;;
19800;SDS011;10060;48.274;12.214;2023-03-01T06:41:47;30.73;;;16.03;;
19800;SDS011;10060;48.274;12.214;2023-03-01T06:44:49;31.20;;;16.80;;
19800;SDS011;10060;48.274;12.214;2023-03-01T06:47:56;31.80;;;17.73;;
19800;SDS011;10060;48.274;12.214;2023-03-01T06:51:02;35.07;;;17.30;;
19800;SDS011;10060;48.274;12.214;2023-03-01T06:54:04;30.27;;;16.97;;
19800;SDS011;10060;48.274;12.214;2023-03-01T06:57:06;33.93;;;17.40;;
19800;SDS011;10060;48.274;12.214;2023-03-01T07:00:09;32.33;;;16.90;;
19800;SDS011;10060;48.274;12.214;2023-03-01T07:03:12;31.03;;;16.27;;
19800;SDS011;10060;48.274;12.214;2023-03-01T07:06:15;29.77;;;16.87;;
19800;SDS011;10060;48.274;12.214;2023-03-01T07:09:17;35.20;;;17.50;;
19800;SDS011;10060;48.274;12.214;2023-03-01T07:12:21;33.77;;;17.50;;
19800;SDS011;10060;48.274;12.214;2023-03-01T07:15:24;33.33;;;16.00;;
19800;SDS011;10060;48.274;12.214;2023-03-01T07:18:27;34.70;;;17.17;;
19800;SDS011;10060;48.274;12.214;2023-03-01T07:21:29;32.07;;;16.43;;
19800;SDS011;10060;48.274;12.214;2023-03-01T07:24:31;33.53;;;16.87;;
19800;SDS011;10060;48.274;12.214;2023-03-01T07:27:33;33.13;;;16.57;;
19800;SDS011;10060;48.274;12.214;2023-03-01T07:30:36;32.90;;;16.60;;
19800;SDS011;10060;48.274;12.214;2023-03-01T07:33:39;31.70;;;16.67;;
19800;SDS011;10060;48.274;12.214;2023-03-01T07:36:41;33.57;;;17.13;;
19800;SDS011;10060;48.274;12.214;2023-03-01T07:39:45;31.77;;;15.90;;
19800;SDS011;10060;48.274;12.214;2023-03-01T07:42:47;38.53;;;17.00;;
19800;SDS011;10060;48.274;12.214;2023-03-01T07:45:49;34.83;;;18.13;;
19800;SDS011;10060;48.274;12.214;2023-03-01T07:48:53;34.10;;;16.37;;
19800;SDS011;10060;48.274;12.214;2023-03-01T07:51:55;36.90;;;17.23;;
19800;SDS011;10060;48.274;12.214;2023-03-01T07:54:57;36.33;;;17.23;;
19800;SDS011;10060;48.274;12.214;2023-03-01T07:57:59;34.17;;;17.07;;
19800;SDS011;10060;48.274;12.214;2023-03-01T08:01:01;33.67;;;17.40;;
19800;SDS011;10060;48.274;12.214;2023-03-01T08:04:05;33.10;;;16.97;;
19800;SDS011;10060;48.274;12.214;2023-03-01T08:07:09;31.63;;;15.37;;
19800;SDS011;10060;48.274;12.214;2023-03-01T08:10:11;36.40;;;18.83;;
19800;SDS011;10060;48.274;12.214;2023-03-01T08:13:13;29.33;;;15.77;;
19800;SDS011;10060;48.274;12.214;2023-03-01T08:16:15;31.80;;;18.07;;
19800;SDS011;10060;48.274;12.214;2023-03-01T08:19:18;38.63;;;17.83;;
19800;SDS011;10060;48.274;12.214;2023-03-01T08:22:20;38.03;;;18.03;;
19800;SDS011;10060;48.274;12.214;2023-03-01T08:25:23;34.97;;;18.17;;
19800;SDS011;10060;48.274;12.214;2023-03-01T08:28:25;40.17;;;16.27;;
19800;SDS011;10060;48.274;12.214;2023-03-01T08:31:27;36.00;;;18.50;;
19800;SDS011;10060;48.274;12.214;2023-03-01T08:34:31;37.37;;;19.10;;
19800;SDS011;10060;48.274;12.214;2023-03-01T08:37:35;33.83;;;17.47;;
19800;SDS011;10060;48.274;12.214;2023-03-01T08:40:37;41.40;;;19.40;;
19800;SDS011;10060;48.274;12.214;2023-03-01T08:43:39;36.73;;;18.50;;
19800;SDS011;10060;48.274;12.214;2023-03-01T08:46:42;41.00;;;18.67;;
19800;SDS011;10060;48.274;12.214;2023-03-01T08:49:46;36.17;;;17.90;;
19800;SDS011;10060;48.274;12.214;2023-03-01T08:52:48;42.50;;;18.27;;
19800;SDS011;10060;48.274;12.214;2023-03-01T08:55:50;32.07;;;17.03;;
19800;SDS011;10060;48.274;12.214;2023-03-01T08:58:52;38.30;;;17.53;;
19800;SDS011;10060;48.274;12.214;2023-03-01T09:01:55;34.23;;;17.63;;
19800;SDS011;10060;48.274;12.214;2023-03-01T09:04:58;33.03;;;17.33;;
19800;SDS011;10060;48.274;12.214;2023-03-01T09:08:00;34.30;;;16.87;;
19800;SDS011;10060;48.274;12.214;2023-03-01T09:11:02;39.13;;;19.00;;
19800;SDS011;10060;48.274;12.214;2023-03-01T09:14:05;35.73;;;18.00;;
19800;SDS011;10060;48.274;12.214;2023-03-01T09:17:07;36.27;;;17.60;;
19800;SDS011;10060;48.274;12.214;2023-03-01T09:20:11;34.03;;;17.50;;
19800;SDS011;10060;48.274;12.214;2023-03-01T09:23:14;34.47;;;17.83;;
19800;SDS011;10060;48.274;12.214;2023-03-01T09:26:17;38.53;;;18.70;;
19800;SDS011;10060;48.274;12.214;2023-03-01T09:29:21;35.20;;;17.07;;
19800;SDS011;10060;48.274;12.214;2023-03-01T09:32:23;33.23;;;18.10;;
19800;SDS011;10060;48.274;12.214;2023-03-01T09:35:26;32.80;;;18.50;;
19800;SDS011;10060;48.274;12.214;2023-03-01T09:38:29;32.63;;;15.87;;
19800;SDS011;10060;48.274;12.214;2023-03-01T09:44:51;33.33;;;18.10;;
19800;SDS011;10060;48.274;12.214;2023-03-01T09:47:53;32.70;;;16.83;;
19800;SDS011;10060;48.274;12.214;2023-03-01T09:50:57;35.13;;;17.70;;
19800;SDS011;10060;48.274;12.214;2023-03-01T09:54:00;33.07;;;16.50;;
19800;SDS011;10060;48.274;12.214;2023-03-01T09:57:11;34.30;;;18.57;;
19800;SDS011;10060;48.274;12.214;2023-03-01T10:00:22;34.60;;;17.97;;
19800;SDS011;10060;48.274;12.214;2023-03-01T10:03:26;35.70;;;18.13;;
19800;SDS011;10060;48.274;12.214;2023-03-01T10:06:31;36.93;;;18.33;;
19800;SDS011;10060;48.274;12.214;2023-03-01T10:09:33;32.83;;;17.00;;
19800;SDS011;10060;48.274;12.214;2023-03-01T10:12:37;33.90;;;17.10;;
19800;SDS011;10060;48.274;12.214;2023-03-01T10:15:43;39.23;;;18.03;;
19800;SDS011;10060;48.274;12.214;2023-03-01T10:18:46;35.87;;;17.83;;
19800;SDS011;10060;48.274;12.214;2023-03-01T10:21:51;35.43;;;17.87;;
19800;SDS011;10060;48.274;12.214;2023-03-01T10:24:53;36.90;;;17.53;;
19800;SDS011;10060;48.274;12.214;2023-03-01T10:27:59;36.53;;;18.30;;
19800;SDS011;10060;48.274;12.214;2023-03-01T10:31:03;35.07;;;17.63;;
19800;SDS011;10060;48.274;12.214;2023-03-01T10:34:13;32.07;;;16.73;;
19800;SDS011;10060;48.274;12.214;2023-03-01T10:37:17;29.40;;;17.33;;
19800;SDS011;10060;48.274;12.214;2023-03-01T10:40:21;33.10;;;16.87;;
19800;SDS011;10060;48.274;12.214;2023-03-01T10:43:23;34.13;;;17.50;;
19800;SDS011;10060;48.274;12.214;2023-03-01T10:46:27;34.77;;;17.07;;
19800;SDS011;10060;48.274;12.214;2023-03-01T10:49:29;36.67;;;17.90;;
19800;SDS011;10060;48.274;12.214;2023-03-01T10:52:34;35.43;;;18.10;;
19800;SDS011;10060;48.274;12.214;2023-03-01T10:55:37;33.60;;;17.33;;
19800;SDS011;10060;48.274;12.214;2023-03-01T10:58:40;36.30;;;17.93;;
19800;SDS011;10060;48.274;12.214;2023-03-01T11:01:43;30.90;;;17.00;;
19800;SDS011;10060;48.274;12.214;2023-03-01T11:08:03;34.33;;;18.20;;
19800;SDS011;10060;48.274;12.214;2023-03-01T11:14:33;32.87;;;16.97;;
19800;SDS011;10060;48.274;12.214;2023-03-01T11:17:38;36.40;;;18.07;;
19800;SDS011;10060;48.274;12.214;2023-03-01T11:20:45;33.80;;;17.90;;
19800;SDS011;10060;48.274;12.214;2023-03-01T11:23:49;34.60;;;18.57;;
19800;SDS011;10060;48.274;12.214;2023-03-01T11:26:53;34.07;;;17.90;;
19800;SDS011;10060;48.274;12.214;2023-03-01T11:29:55;33.77;;;17.73;;
19800;SDS011;10060;48.274;12.214;2023-03-01T11:33:04;38.23;;;17.83;;
19800;SDS011;10060;48.274;12.214;2023-03-01T11:36:13;31.30;;;17.17;;
19800;SDS011;10060;48.274;12.214;2023-03-01T11:39:21;36.47;;;17.73;;
19800;SDS011;10060;48.274;12.214;2023-03-01T11:42:28;32.27;;;18.20;;
19800;SDS011;10060;48.274;12.214;2023-03-01T11:45:37;34.03;;;17.00;;
19800;SDS011;10060;48.274;12.214;2023-03-01T11:48:46;27.77;;;15.77;;
19800;SDS011;10060;48.274;12.214;2023-03-01T11:51:52;34.20;;;16.50;;
19800;SDS011;10060;48.274;12.214;2023-03-01T11:55:01;32.53;;;17.33;;
19800;SDS011;10060;48.274;12.214;2023-03-01T11:58:14;31.80;;;17.53;;
19800;SDS011;10060;48.274;12.214;2023-03-01T12:01:22;35.50;;;17.37;;
19800;SDS011;10060;48.274;12.214;2023-03-01T12:04:34;38.33;;;18.40;;
19800;SDS011;10060;48.274;12.214;2023-03-01T12:07:39;30.33;;;16.83;;
19800;SDS011;10060;48.274;12.214;2023-03-01T12:10:47;31.50;;;16.03;;
19800;SDS011;10060;48.274;12.214;2023-03-01T12:13:55;29.53;;;16.70;;
19800;SDS011;10060;48.274;12.214;2023-03-01T12:17:07;30.10;;;16.43;;
19800;SDS011;10060;48.274;12.214;2023-03-01T12:20:25;30.80;;;16.63;;
19800;SDS011;10060;48.274;12.214;2023-03-01T12:23:34;35.83;;;17.53;;
19800;SDS011;10060;48.274;12.214;2023-03-01T12:26:42;33.93;;;17.03;;
19800;SDS011;10060;48.274;12.214;2023-03-01T12:29:50;28.00;;;15.87;;
19800;SDS011;10060;48.274;12.214;2023-03-01T12:33:00;26.40;;;15.37;;
19800;SDS011;10060;48.274;12.214;2023-03-01T12:36:10;33.73;;;16.97;;
19800;SDS011;10060;48.274;12.214;2023-03-01T12:39:24;27.67;;;16.77;;
19800;SDS011;10060;48.274;12.214;2023-03-01T12:42:33;29.27;;;15.63;;
19800;SDS011;10060;48.274;12.214;2023-03-01T12:45:45;31.80;;;15.97;;
19800;SDS011;10060;48.274;12.214;2023-03-01T12:48:51;31.13;;;15.87;;
19800;SDS011;10060;48.274;12.214;2023-03-01T12:51:59;34.73;;;16.67;;
19800;SDS011;10060;48.274;12.214;2023-03-01T12:55:02;33.10;;;15.47;;
19800;SDS011;10060;48.274;12.214;2023-03-01T12:58:12;33.47;;;16.70;;
19800;SDS011;10060;48.274;12.214;2023-03-01T13:01:19;29.40;;;16.13;;
19800;SDS011;10060;48.274;12.214;2023-03-01T13:04:32;28.90;;;15.30;;
19800;SDS011;10060;48.274;12.214;2023-03-01T13:07:38;29.87;;;17.17;;
19800;SDS011;10060;48.274;12.214;2023-03-01T13:10:43;27.23;;;15.60;;
19800;SDS011;10060;48.274;12.214;2023-03-01T13:13:50;25.90;;;14.70;;
19800;SDS011;10060;48.274;12.214;2023-03-01T13:16:54;28.97;;;15.13;;
19800;SDS011;10060;48.274;12.214;2023-03-01T13:19:57;26.83;;;16.00;;
19800;SDS011;10060;48.274;12.214;2023-03-01T13:23:00;33.30;;;14.90;;
19800;SDS011;10060;48.274;12.214;2023-03-01T13:26:04;28.67;;;15.97;;
19800;SDS011;10060;48.274;12.214;2023-03-01T13:29:11;30.10;;;16.00;;
19800;SDS011;10060;48.274;12.214;2023-03-01T13:32:27;26.57;;;15.17;;
19800;SDS011;10060;48.274;12.214;2023-03-01T13:35:41;32.63;;;16.50;;
19800;SDS011;10060;48.274;12.214;2023-03-01T13:38:45;29.07;;;15.90;;
19800;SDS011;10060;48.274;12.214;2023-03-01T13:41:49;30.80;;;15.23;;
19800;SDS011;10060;48.274;12.214;2023-03-01T13:44:52;27.73;;;15.90;;
19800;SDS011;10060;48.274;12.214;2023-03-01T13:47:55;27.20;;;15.47;;
19800;SDS011;10060;48.274;12.214;2023-03-01T13:50:59;31.07;;;15.70;;
19800;SDS011;10060;48.274;12.214;2023-03-01T13:54:02;29.30;;;15.10;;
19800;SDS011;10060;48.274;12.214;2023-03-01T13:57:04;26.70;;;15.53;;
19800;SDS011;10060;48.274;12.214;2023-03-01T14:00:24;28.67;;;15.07;;
19800;SDS011;10060;48.274;12.214;2023-03-01T14:03:26;28.03;;;15.60;;
19800;SDS011;10060;48.274;12.214;2023-03-01T14:06:30;24.87;;;14.37;;
19800;SDS011;10060;48.274;12.214;2023-03-01T14:09:32;28.30;;;14.60;;
19800;SDS011;10060;48.274;12.214;2023-03-01T14:12:38;25.87;;;13.57;;
19800;SDS011;10060;48.274;12.214;2023-03-01T14:15:44;22.93;;;12.33;;
19800;SDS011;10060;48.274;12.214;2023-03-01T14:18:52;24.80;;;13.00;;
19800;SDS011;10060;48.274;12.214;2023-03-01T14:21:59;30.40;;;14.17;;
19800;SDS011;10060;48.274;12.214;2023-03-01T14:25:06;22.97;;;13.47;;
19800;SDS011;10060;48.274;12.214;2023-03-01T14:28:19;33.57;;;14.07;;
19800;SDS011;10060;48.274;12.214;2023-03-01T14:31:31;22.43;;;12.13;;
19800;SDS011;10060;48.274;12.214;2023-03-01T14:34:34;29.67;;;12.57;;
19800;SDS011;10060;48.274;12.214;2023-03-01T14:37:36;22.53;;;12.60;;
19800;SDS011;10060;48.274;12.214;2023-03-01T14:40:38;26.70;;;12.77;;
19800;SDS011;10060;48.274;12.214;2023-03-01T14:43:41;18.87;;;11.17;;
19800;SDS011;10060;48.274;12.214;2023-03-01T14:46:46;21.70;;;12.10;;
19800;SDS011;10060;48.274;12.214;2023-03-01T14:49:48;17.43;;;11.73;;
19800;SDS011;10060;48.274;12.214;2023-03-01T14:52:53;23.57;;;11.60;;
19800;SDS011;10060;48.274;12.214;2023-03-01T14:55:57;17.33;;;10.07;;
19800;SDS011;10060;48.274;12.214;2023-03-01T14:59:02;18.37;;;10.13;;
19800;SDS011;10060;48.274;12.214;2023-03-01T15:02:08;17.77;;;10.50;;
19800;SDS011;10060;48.274;12.214;2023-03-01T15:05:17;20.80;;;11.03;;
19800;SDS011;10060;48.274;12.214;2023-03-01T15:08:21;18.37;;;10.07;;
19800;SDS011;10060;48.274;12.214;2023-03-01T15:11:27;19.53;;;10.40;;
19800;SDS011;10060;48.274;12.214;2023-03-01T15:14:38;19.03;;;9.63;;
19800;SDS011;10060;48.274;12.214;2023-03-01T15:17:42;17.60;;;9.20;;
19800;SDS011;10060;48.274;12.214;2023-03-01T15:20:45;15.83;;;9.30;;
19800;SDS011;10060;48.274;12.214;2023-03-01T15:23:48;16.07;;;8.80;;
19800;SDS011;10060;48.274;12.214;2023-03-01T15:26:51;18.27;;;8.63;;
19800;SDS011;10060;48.274;12.214;2023-03-01T15:29:55;15.53;;;8.83;;
19800;SDS011;10060;48.274;12.214;2023-03-01T15:33:19;15.23;;;8.57;;
19800;SDS011;10060;48.274;12.214;2023-03-01T15:36:30;16.13;;;9.27;;
19800;SDS011;10060;48.274;12.214;2023-03-01T15:39:34;17.80;;;8.80;;
19800;SDS011;10060;48.274;12.214;2023-03-01T15:42:38;15.97;;;8.97;;
19800;SDS011;10060;48.274;12.214;2023-03-01T15:45:40;17.10;;;8.53;;
19800;SDS011;10060;48.274;12.214;2023-03-01T15:48:45;14.60;;;8.93;;
19800;SDS011;10060;48.274;12.214;2023-03-01T15:51:49;14.17;;;8.80;;
19800;SDS011;10060;48.274;12.214;2023-03-01T15:54:51;18.13;;;8.90;;
19800;SDS011;10060;48.274;12.214;2023-03-01T15:57:57;14.63;;;8.40;;
19800;SDS011;10060;48.274;12.214;2023-03-01T16:01:01;14.60;;;8.47;;
19800;SDS011;10060;48.274;12.214;2023-03-01T16:04:04;21.20;;;8.40;;
19800;SDS011;10060;48.274;12.214;2023-03-01T16:07:08;23.83;;;8.93;;
19800;SDS011;10060;48.274;12.214;2023-03-01T16:10:10;18.80;;;8.43;;
19800;SDS011;10060;48.274;12.214;2023-03-01T16:13:13;14.93;;;8.53;;
19800;SDS011;10060;48.274;12.214;2023-03-01T16:16:15;15.77;;;8.00;;
19800;SDS011;10060;48.274;12.214;2023-03-01T16:19:19;13.97;;;8.27;;
19800;SDS011;10060;48.274;12.214;2023-03-01T16:22:21;14.67;;;7.87;;
19800;SDS011;10060;48.274;12.214;2023-03-01T16:25:24;12.00;;;7.60;;
19800;SDS011;10060;48.274;12.214;2023-03-01T16:28:27;11.57;;;7.00;;
19800;SDS011;10060;48.274;12.214;2023-03-01T16:31:29;16.50;;;7.70;;
19800;SDS011;10060;48.274;12.214;2023-03-01T16:34:32;13.50;;;7.23;;
19800;SDS011;10060;48.274;12.214;2023-03-01T16:37:35;21.13;;;7.60;;
19800;SDS011;10060;48.274;12.214;2023-03-01T16:40:37;12.67;;;7.47;;
19800;SDS011;10060;48.274;12.214;2023-03-01T16:43:39;12.60;;;7.37;;
19800;SDS011;10060;48.274;12.214;2023-03-01T16:46:42;14.20;;;8.13;;
19800;SDS011;10060;48.274;12.214;2023-03-01T16:49:45;14.33;;;7.07;;
19800;SDS011;10060;48.274;12.214;2023-03-01T16:52:47;13.87;;;8.33;;
19800;SDS011;10060;48.274;12.214;2023-03-01T16:55:52;17.93;;;8.53;;
19800;SDS011;10060;48.274;12.214;2023-03-01T16:58:54;14.67;;;8.33;;
19800;SDS011;10060;48.274;12.214;2023-03-01T17:01:56;14.40;;;8.13;;
19800;SDS011;10060;48.274;12.214;2023-03-01T17:05:00;16.50;;;8.93;;
19800;SDS011;10060;48.274;12.214;2023-03-01T17:08:03;14.70;;;9.27;;
19800;SDS011;10060;48.274;12.214;2023-03-01T17:11:05;20.17;;;9.67;;
19800;SDS011;10060;48.274;12.214;2023-03-01T17:14:07;22.37;;;9.70;;
19800;SDS011;10060;48.274;12.214;2023-03-01T17:17:10;16.97;;;9.37;;
19800;SDS011;10060;48.274;12.214;2023-03-01T17:20:14;22.27;;;9.40;;
19800;SDS011;10060;48.274;12.214;2023-03-01T17:23:16;22.63;;;9.27;;
19800;SDS011;10060;48.274;12.214;2023-03-01T17:26:18;19.03;;;9.90;;
19800;SDS011;10060;48.274;12.214;2023-03-01T17:29:20;19.60;;;10.57;;
19800;SDS011;10060;48.274;12.214;2023-03-01T17:32:22;18.50;;;10.90;;
19800;SDS011;10060;48.274;12.214;2023-03-01T17:35:26;18.10;;;10.40;;
19800;SDS011;10060;48.274;12.214;2023-03-01T17:38:28;20.03;;;10.37;;
19800;SDS011;10060;48.274;12.214;2023-03-01T17:41:30;20.37;;;11.47;;
19800;SDS011;10060;48.274;12.214;2023-03-01T17:44:32;20.77;;;10.27;;
19800;SDS011;10060;48.274;12.214;2023-03-01T17:47:34;18.30;;;9.80;;
19800;SDS011;10060;48.274;12.214;2023-03-01T17:50:38;20.43;;;11.00;;
19800;SDS011;10060;48.274;12.214;2023-03-01T17:53:40;16.70;;;9.60;;
19800;SDS011;10060;48.274;12.214;2023-03-01T17:56:42;21.30;;;10.43;;